sensor_id;sensor_type;location;lat;lon;timestamp;P1;durP1;ratioP1;P2;durP2;ratioP2
13580;SDS011;6861;46.170;7.222;2023-06-26T00:01:28;6.00;;;5.25;;
13580;SDS011;6861;46.170;7.222;2023-06-26T00:03:58;5.80;;;5.20;;
13580;SDS011;6861;46.170;7.222;2023-06-26T00:06:28;6.75;;;5.60;;
13580;SDS011;6861;46.170;7.222;2023-06-26T00:08:57;5.78;;;5.18;;
13580;SDS011;6861;46.170;7.222;2023-06-26T00:11:26;5.72;;;5.10;;
13580;SDS011;6861;46.170;7.222;2023-06-26T00:13:57;6.13;;;5.53;;
13580;SDS011;6861;46.170;7.222;2023-06-26T00:16:26;6.63;;;5.28;;
13580;SDS011;6861;46.170;7.222;2023-06-26T00:18:54;5.78;;;5.18;;
13580;SDS011;6861;46.170;7.222;2023-06-26T00:21:22;6.45;;;5.18;;
13580;SDS011;6861;46.170;7.222;2023-06-26T00:23:52;5.68;;;5.18;;
13580;SDS011;6861;46.170;7.222;2023-06-26T00:26:20;6.20;;;5.30;;
13580;SDS011;6861;46.170;7.222;2023-06-26T00:28:48;7.45;;;5.35;;
13580;SDS011;6861;46.170;7.222;2023-06-26T00:31:16;5.80;;;5.20;;
13580;SDS011;6861;46.170;7.222;2023-06-26T00:33:45;6.60;;;5.35;;
13580;SDS011;6861;46.170;7.222;2023-06-26T00:36:13;5.90;;;5.28;;
13580;SDS011;6861;46.170;7.222;2023-06-26T00:38:41;6.20;;;5.60;;
13580;SDS011;6861;46.170;7.222;2023-06-26T00:41:11;6.90;;;5.63;;
13580;SDS011;6861;46.170;7.222;2023-06-26T00:43:39;6.10;;;5.32;;
13580;SDS011;6861;46.170;7.222;2023-06-26T00:46:08;5.85;;;5.28;;
13580;SDS011;6861;46.170;7.222;2023-06-26T00:48:38;6.65;;;5.15;;
13580;SDS011;6861;46.170;7.222;2023-06-26T00:51:11;6.10;;;5.53;;
13580;SDS011;6861;46.170;7.222;2023-06-26T00:53:40;6.80;;;5.70;;
13580;SDS011;6861;46.170;7.222;2023-06-26T00:56:10;6.15;;;5.55;;
13580;SDS011;6861;46.170;7.222;2023-06-26T00:58:39;5.90;;;5.30;;
13580;SDS011;6861;46.170;7.222;2023-06-26T01:01:07;6.40;;;5.47;;
13580;SDS011;6861;46.170;7.222;2023-06-26T01:03:42;6.82;;;6.15;;
13580;SDS011;6861;46.170;7.222;2023-06-26T01:06:11;6.78;;;5.50;;
13580;SDS011;6861;46.170;7.222;2023-06-26T01:08:42;5.80;;;5.28;;
13580;SDS011;6861;46.170;7.222;2023-06-26T01:11:13;6.25;;;5.18;;
13580;SDS011;6861;46.170;7.222;2023-06-26T01:13:42;6.65;;;5.32;;
13580;SDS011;6861;46.170;7.222;2023-06-26T01:16:11;6.40;;;5.22;;
13580;SDS011;6861;46.170;7.222;2023-06-26T01:18:40;6.45;;;5.22;;
13580;SDS011;6861;46.170;7.222;2023-06-26T01:21:35;6.50;;;5.13;;
13580;SDS011;6861;46.170;7.222;2023-06-26T01:24:09;5.95;;;5.10;;
13580;SDS011;6861;46.170;7.222;2023-06-26T01:26:48;6.38;;;5.78;;
13580;SDS011;6861;46.170;7.222;2023-06-26T01:29:18;6.20;;;5.32;;
13580;SDS011;6861;46.170;7.222;2023-06-26T01:31:49;7.50;;;5.78;;
13580;SDS011;6861;46.170;7.222;2023-06-26T01:34:18;7.95;;;5.97;;
13580;SDS011;6861;46.170;7.222;2023-06-26T01:36:46;9.88;;;5.82;;
13580;SDS011;6861;46.170;7.222;2023-06-26T01:39:14;7.32;;;5.47;;
13580;SDS011;6861;46.170;7.222;2023-06-26T01:41:43;6.85;;;6.15;;
13580;SDS011;6861;46.170;7.222;2023-06-26T01:44:17;6.22;;;5.55;;
13580;SDS011;6861;46.170;7.222;2023-06-26T01:46:55;6.20;;;5.60;;
13580;SDS011;6861;46.170;7.222;2023-06-26T01:49:31;6.55;;;5.85;;
13580;SDS011;6861;46.170;7.222;2023-06-26T01:52:07;7.00;;;6.30;;
13580;SDS011;6861;46.170;7.222;2023-06-26T01:54:44;6.78;;;5.70;;
13580;SDS011;6861;46.170;7.222;2023-06-26T01:57:20;7.10;;;6.10;;
13580;SDS011;6861;46.170;7.222;2023-06-26T01:59:53;7.20;;;5.53;;
13580;SDS011;6861;46.170;7.222;2023-06-26T02:02:23;5.85;;;5.18;;
13580;SDS011;6861;46.170;7.222;2023-06-26T02:04:52;6.57;;;5.60;;
13580;SDS011;6861;46.170;7.222;2023-06-26T02:07:20;7.07;;;5.32;;
13580;SDS011;6861;46.170;7.222;2023-06-26T02:09:48;6.00;;;5.40;;
13580;SDS011;6861;46.170;7.222;2023-06-26T02:12:17;5.85;;;5.18;;
13580;SDS011;6861;46.170;7.222;2023-06-26T02:14:45;6.57;;;5.88;;
13580;SDS011;6861;46.170;7.222;2023-06-26T02:17:14;6.68;;;5.47;;
13580;SDS011;6861;46.170;7.222;2023-06-26T02:19:42;6.60;;;5.85;;
13580;SDS011;6861;46.170;7.222;2023-06-26T02:22:14;6.63;;;5.82;;
13580;SDS011;6861;46.170;7.222;2023-06-26T02:24:43;6.53;;;5.70;;
13580;SDS011;6861;46.170;7.222;2023-06-26T02:27:11;6.82;;;5.55;;
13580;SDS011;6861;46.170;7.222;2023-06-26T02:29:40;6.43;;;5.20;;
13580;SDS011;6861;46.170;7.222;2023-06-26T02:32:08;6.18;;;4.97;;
13580;SDS011;6861;46.170;7.222;2023-06-26T02:34:38;5.60;;;5.03;;
13580;SDS011;6861;46.170;7.222;2023-06-26T02:37:06;6.57;;;5.88;;
13580;SDS011;6861;46.170;7.222;2023-06-26T02:39:34;6.32;;;5.70;;
13580;SDS011;6861;46.170;7.222;2023-06-26T02:42:02;7.85;;;6.18;;
13580;SDS011;6861;46.170;7.222;2023-06-26T02:44:31;6.18;;;5.47;;
13580;SDS011;6861;46.170;7.222;2023-06-26T02:46:59;7.88;;;5.97;;
13580;SDS011;6861;46.170;7.222;2023-06-26T02:49:27;5.88;;;5.30;;
13580;SDS011;6861;46.170;7.222;2023-06-26T02:51:57;6.38;;;5.35;;
13580;SDS011;6861;46.170;7.222;2023-06-26T02:54:25;7.32;;;6.25;;
13580;SDS011;6861;46.170;7.222;2023-06-26T02:56:53;7.22;;;5.70;;
13580;SDS011;6861;46.170;7.222;2023-06-26T02:59:21;7.93;;;6.03;;
13580;SDS011;6861;46.170;7.222;2023-06-26T03:01:49;6.68;;;5.95;;
13580;SDS011;6861;46.170;7.222;2023-06-26T03:04:17;6.35;;;5.57;;
13580;SDS011;6861;46.170;7.222;2023-06-26T03:06:48;7.18;;;5.45;;
13580;SDS011;6861;46.170;7.222;2023-06-26T03:09:17;7.75;;;5.82;;
13580;SDS011;6861;46.170;7.222;2023-06-26T03:11:45;6.63;;;5.35;;
13580;SDS011;6861;46.170;7.222;2023-06-26T03:14:13;6.82;;;5.78;;
13580;SDS011;6861;46.170;7.222;2023-06-26T03:16:42;7.32;;;5.85;;
13580;SDS011;6861;46.170;7.222;2023-06-26T03:19:10;7.15;;;5.38;;
13580;SDS011;6861;46.170;7.222;2023-06-26T03:21:38;6.15;;;5.55;;
13580;SDS011;6861;46.170;7.222;2023-06-26T03:24:06;6.85;;;5.40;;
13580;SDS011;6861;46.170;7.222;2023-06-26T03:26:36;6.72;;;5.75;;
13580;SDS011;6861;46.170;7.222;2023-06-26T03:29:04;7.28;;;5.72;;
13580;SDS011;6861;46.170;7.222;2023-06-26T03:31:32;6.18;;;5.57;;
13580;SDS011;6861;46.170;7.222;2023-06-26T03:34:01;6.40;;;5.50;;
13580;SDS011;6861;46.170;7.222;2023-06-26T03:36:29;6.78;;;5.55;;
13580;SDS011;6861;46.170;7.222;2023-06-26T03:38:57;7.20;;;5.55;;
13580;SDS011;6861;46.170;7.222;2023-06-26T03:41:25;6.60;;;5.90;;
13580;SDS011;6861;46.170;7.222;2023-06-26T03:43:55;6.57;;;5.60;;
13580;SDS011;6861;46.170;7.222;2023-06-26T03:46:24;6.65;;;5.80;;
13580;SDS011;6861;46.170;7.222;2023-06-26T03:48:52;9.70;;;6.10;;
13580;SDS011;6861;46.170;7.222;2023-06-26T03:51:20;6.18;;;5.57;;
13580;SDS011;6861;46.170;7.222;2023-06-26T03:53:48;8.25;;;5.80;;
13580;SDS011;6861;46.170;7.222;2023-06-26T03:56:16;8.00;;;6.13;;
13580;SDS011;6861;46.170;7.222;2023-06-26T03:58:44;8.85;;;5.88;;
13580;SDS011;6861;46.170;7.222;2023-06-26T04:01:14;7.95;;;5.18;;
13580;SDS011;6861;46.170;7.222;2023-06-26T04:03:42;13.38;;;6.57;;
13580;SDS011;6861;46.170;7.222;2023-06-26T04:06:11;14.60;;;7.10;;
13580;SDS011;6861;46.170;7.222;2023-06-26T04:08:39;11.35;;;6.93;;
13580;SDS011;6861;46.170;7.222;2023-06-26T04:11:07;12.95;;;6.32;;
13580;SDS011;6861;46.170;7.222;2023-06-26T04:13:35;11.88;;;6.80;;
13580;SDS011;6861;46.170;7.222;2023-06-26T04:16:03;9.13;;;6.28;;
13580;SDS011;6861;46.170;7.222;2023-06-26T04:18:34;10.70;;;7.10;;
13580;SDS011;6861;46.170;7.222;2023-06-26T04:21:06;12.32;;;7.15;;
13580;SDS011;6861;46.170;7.222;2023-06-26T04:23:36;18.05;;;7.90;;
13580;SDS011;6861;46.170;7.222;2023-06-26T04:26:05;10.98;;;6.63;;
13580;SDS011;6861;46.170;7.222;2023-06-26T04:28:34;13.13;;;7.03;;
13580;SDS011;6861;46.170;7.222;2023-06-26T04:31:02;12.05;;;6.43;;
13580;SDS011;6861;46.170;7.222;2023-06-26T04:33:31;9.60;;;6.40;;
13580;SDS011;6861;46.170;7.222;2023-06-26T04:36:00;6.95;;;6.00;;
13580;SDS011;6861;46.170;7.222;2023-06-26T04:38:30;7.30;;;6.47;;
13580;SDS011;6861;46.170;7.222;2023-06-26T04:40:59;7.82;;;5.57;;
13580;SDS011;6861;46.170;7.222;2023-06-26T04:43:27;7.68;;;6.45;;
13580;SDS011;6861;46.170;7.222;2023-06-26T04:45:55;6.93;;;5.93;;
13580;SDS011;6861;46.170;7.222;2023-06-26T04:48:24;11.02;;;6.15;;
13580;SDS011;6861;46.170;7.222;2023-06-26T04:50:54;9.32;;;6.60;;
13580;SDS011;6861;46.170;7.222;2023-06-26T04:53:24;9.07;;;6.03;;
13580;SDS011;6861;46.170;7.222;2023-06-26T04:55:52;6.95;;;6.25;;
13580;SDS011;6861;46.170;7.222;2023-06-26T04:58:20;7.13;;;6.43;;
13580;SDS011;6861;46.170;7.222;2023-06-26T05:00:49;9.23;;;7.00;;
13580;SDS011;6861;46.170;7.222;2023-06-26T05:03:17;7.35;;;6.53;;
13580;SDS011;6861;46.170;7.222;2023-06-26T05:05:45;8.45;;;6.10;;
13580;SDS011;6861;46.170;7.222;2023-06-26T05:08:14;8.30;;;6.35;;
13580;SDS011;6861;46.170;7.222;2023-06-26T05:10:44;8.10;;;6.45;;
13580;SDS011;6861;46.170;7.222;2023-06-26T05:13:13;8.43;;;6.55;;
13580;SDS011;6861;46.170;7.222;2023-06-26T05:15:44;8.55;;;6.50;;
13580;SDS011;6861;46.170;7.222;2023-06-26T05:18:12;10.90;;;7.20;;
13580;SDS011;6861;46.170;7.222;2023-06-26T05:20:40;9.80;;;6.40;;
13580;SDS011;6861;46.170;7.222;2023-06-26T05:23:09;12.60;;;7.50;;
13580;SDS011;6861;46.170;7.222;2023-06-26T05:25:39;13.48;;;7.53;;
13580;SDS011;6861;46.170;7.222;2023-06-26T05:28:10;10.27;;;6.90;;
13580;SDS011;6861;46.170;7.222;2023-06-26T05:30:39;10.38;;;6.93;;
13580;SDS011;6861;46.170;7.222;2023-06-26T05:33:08;9.65;;;6.93;;
13580;SDS011;6861;46.170;7.222;2023-06-26T05:35:39;8.43;;;6.72;;
13580;SDS011;6861;46.170;7.222;2023-06-26T05:38:08;17.20;;;7.43;;
13580;SDS011;6861;46.170;7.222;2023-06-26T05:40:37;9.75;;;7.05;;
13580;SDS011;6861;46.170;7.222;2023-06-26T05:43:07;12.73;;;7.50;;
13580;SDS011;6861;46.170;7.222;2023-06-26T05:45:37;9.95;;;7.43;;
13580;SDS011;6861;46.170;7.222;2023-06-26T05:48:05;9.43;;;6.63;;
13580;SDS011;6861;46.170;7.222;2023-06-26T05:50:34;8.60;;;6.47;;
13580;SDS011;6861;46.170;7.222;2023-06-26T05:53:03;10.07;;;6.97;;
13580;SDS011;6861;46.170;7.222;2023-06-26T05:55:32;10.68;;;7.00;;
13580;SDS011;6861;46.170;7.222;2023-06-26T05:58:01;11.38;;;7.28;;
13580;SDS011;6861;46.170;7.222;2023-06-26T06:00:30;10.05;;;6.85;;
13580;SDS011;6861;46.170;7.222;2023-06-26T06:03:00;8.10;;;6.65;;
13580;SDS011;6861;46.170;7.222;2023-06-26T06:05:28;9.70;;;7.10;;
13580;SDS011;6861;46.170;7.222;2023-06-26T06:07:56;7.25;;;6.53;;
13580;SDS011;6861;46.170;7.222;2023-06-26T06:10:25;10.60;;;6.78;;
13580;SDS011;6861;46.170;7.222;2023-06-26T06:12:53;12.18;;;6.80;;
13580;SDS011;6861;46.170;7.222;2023-06-26T06:15:21;7.60;;;6.72;;
13580;SDS011;6861;46.170;7.222;2023-06-26T06:17:51;11.07;;;6.50;;
13580;SDS011;6861;46.170;7.222;2023-06-26T06:20:21;11.70;;;7.65;;
13580;SDS011;6861;46.170;7.222;2023-06-26T06:22:49;8.70;;;6.95;;
13580;SDS011;6861;46.170;7.222;2023-06-26T06:25:17;7.47;;;6.68;;
13580;SDS011;6861;46.170;7.222;2023-06-26T06:27:45;10.18;;;6.43;;
13580;SDS011;6861;46.170;7.222;2023-06-26T06:30:13;6.97;;;6.28;;
13580;SDS011;6861;46.170;7.222;2023-06-26T06:32:41;7.95;;;6.13;;
13580;SDS011;6861;46.170;7.222;2023-06-26T06:35:09;9.40;;;6.50;;
13580;SDS011;6861;46.170;7.222;2023-06-26T06:37:39;9.20;;;6.82;;
13580;SDS011;6861;46.170;7.222;2023-06-26T06:40:08;7.20;;;6.40;;
13580;SDS011;6861;46.170;7.222;2023-06-26T06:42:38;8.13;;;6.68;;
13580;SDS011;6861;46.170;7.222;2023-06-26T06:45:06;7.20;;;6.03;;
13580;SDS011;6861;46.170;7.222;2023-06-26T06:47:35;7.03;;;5.68;;
13580;SDS011;6861;46.170;7.222;2023-06-26T06:50:03;7.38;;;6.50;;
13580;SDS011;6861;46.170;7.222;2023-06-26T06:52:40;7.05;;;6.07;;
13580;SDS011;6861;46.170;7.222;2023-06-26T06:55:08;6.88;;;6.10;;
13580;SDS011;6861;46.170;7.222;2023-06-26T06:57:36;7.43;;;6.43;;
13580;SDS011;6861;46.170;7.222;2023-06-26T07:00:06;7.53;;;6.07;;
13580;SDS011;6861;46.170;7.222;2023-06-26T07:02:36;7.22;;;5.78;;
13580;SDS011;6861;46.170;7.222;2023-06-26T07:05:05;8.00;;;6.13;;
13580;SDS011;6861;46.170;7.222;2023-06-26T07:07:34;6.57;;;5.93;;
13580;SDS011;6861;46.170;7.222;2023-06-26T07:10:05;6.75;;;5.93;;
13580;SDS011;6861;46.170;7.222;2023-06-26T07:12:35;7.22;;;6.00;;
13580;SDS011;6861;46.170;7.222;2023-06-26T07:15:05;6.45;;;5.85;;
13580;SDS011;6861;46.170;7.222;2023-06-26T07:17:34;6.63;;;5.93;;
13580;SDS011;6861;46.170;7.222;2023-06-26T07:20:04;7.22;;;6.28;;
13580;SDS011;6861;46.170;7.222;2023-06-26T07:22:35;6.82;;;6.13;;
13580;SDS011;6861;46.170;7.222;2023-06-26T07:25:05;6.55;;;5.78;;
13580;SDS011;6861;46.170;7.222;2023-06-26T07:27:36;7.47;;;5.75;;
13580;SDS011;6861;46.170;7.222;2023-06-26T07:30:04;6.18;;;5.50;;
13580;SDS011;6861;46.170;7.222;2023-06-26T07:32:35;6.18;;;5.57;;
13580;SDS011;6861;46.170;7.222;2023-06-26T07:35:04;6.85;;;6.00;;
13580;SDS011;6861;46.170;7.222;2023-06-26T07:37:33;6.72;;;5.85;;
13580;SDS011;6861;46.170;7.222;2023-06-26T07:40:01;6.28;;;5.68;;
13580;SDS011;6861;46.170;7.222;2023-06-26T07:42:31;7.78;;;6.20;;
13580;SDS011;6861;46.170;7.222;2023-06-26T07:44:59;6.60;;;5.80;;
13580;SDS011;6861;46.170;7.222;2023-06-26T07:47:28;7.70;;;6.05;;
13580;SDS011;6861;46.170;7.222;2023-06-26T07:49:56;9.00;;;5.60;;
13580;SDS011;6861;46.170;7.222;2023-06-26T07:52:24;6.07;;;5.47;;
13580;SDS011;6861;46.170;7.222;2023-06-26T07:54:52;6.80;;;6.10;;
13580;SDS011;6861;46.170;7.222;2023-06-26T07:57:20;7.25;;;5.68;;
13580;SDS011;6861;46.170;7.222;2023-06-26T07:59:50;6.53;;;5.93;;
13580;SDS011;6861;46.170;7.222;2023-06-26T08:02:18;6.45;;;5.75;;
13580;SDS011;6861;46.170;7.222;2023-06-26T08:04:47;6.25;;;5.68;;
13580;SDS011;6861;46.170;7.222;2023-06-26T08:07:15;6.32;;;5.72;;
13580;SDS011;6861;46.170;7.222;2023-06-26T08:09:43;6.28;;;5.68;;
13580;SDS011;6861;46.170;7.222;2023-06-26T08:12:11;6.93;;;5.78;;
13580;SDS011;6861;46.170;7.222;2023-06-26T08:14:39;8.88;;;6.15;;
13580;SDS011;6861;46.170;7.222;2023-06-26T08:17:09;6.63;;;5.95;;
13580;SDS011;6861;46.170;7.222;2023-06-26T08:19:37;7.68;;;5.85;;
13580;SDS011;6861;46.170;7.222;2023-06-26T08:22:05;6.22;;;5.63;;
13580;SDS011;6861;46.170;7.222;2023-06-26T08:24:33;6.05;;;5.53;;
13580;SDS011;6861;46.170;7.222;2023-06-26T08:27:03;6.30;;;5.70;;
13580;SDS011;6861;46.170;7.222;2023-06-26T08:29:33;6.93;;;6.20;;
13580;SDS011;6861;46.170;7.222;2023-06-26T08:32:02;6.45;;;5.63;;
13580;SDS011;6861;46.170;7.222;2023-06-26T08:34:31;6.10;;;5.32;;
13580;SDS011;6861;46.170;7.222;2023-06-26T08:36:59;7.43;;;6.22;;
13580;SDS011;6861;46.170;7.222;2023-06-26T08:39:29;7.72;;;6.25;;
13580;SDS011;6861;46.170;7.222;2023-06-26T08:41:57;6.13;;;5.60;;
13580;SDS011;6861;46.170;7.222;2023-06-26T08:44:25;7.47;;;5.88;;
13580;SDS011;6861;46.170;7.222;2023-06-26T08:46:53;7.15;;;6.13;;
13580;SDS011;6861;46.170;7.222;2023-06-26T08:49:24;6.97;;;5.78;;
13580;SDS011;6861;46.170;7.222;2023-06-26T08:51:59;6.35;;;5.75;;
13580;SDS011;6861;46.170;7.222;2023-06-26T08:54:31;6.50;;;5.80;;
13580;SDS011;6861;46.170;7.222;2023-06-26T08:57:04;6.80;;;5.95;;
13580;SDS011;6861;46.170;7.222;2023-06-26T08:59:34;7.38;;;5.60;;
13580;SDS011;6861;46.170;7.222;2023-06-26T09:02:03;6.20;;;5.60;;
13580;SDS011;6861;46.170;7.222;2023-06-26T09:04:31;6.45;;;5.85;;
13580;SDS011;6861;46.170;7.222;2023-06-26T09:07:00;6.93;;;5.38;;
13580;SDS011;6861;46.170;7.222;2023-06-26T09:09:29;7.45;;;5.80;;
13580;SDS011;6861;46.170;7.222;2023-06-26T09:11:57;7.95;;;5.72;;
13580;SDS011;6861;46.170;7.222;2023-06-26T09:14:25;9.20;;;6.20;;
13580;SDS011;6861;46.170;7.222;2023-06-26T09:16:54;6.15;;;5.55;;
13580;SDS011;6861;46.170;7.222;2023-06-26T09:19:22;7.38;;;5.97;;
13580;SDS011;6861;46.170;7.222;2023-06-26T09:21:51;7.30;;;5.75;;
13580;SDS011;6861;46.170;7.222;2023-06-26T09:24:20;6.70;;;6.05;;
13580;SDS011;6861;46.170;7.222;2023-06-26T09:26:50;6.03;;;5.35;;
13580;SDS011;6861;46.170;7.222;2023-06-26T09:29:18;7.47;;;5.88;;
13580;SDS011;6861;46.170;7.222;2023-06-26T09:31:47;5.97;;;5.47;;
13580;SDS011;6861;46.170;7.222;2023-06-26T09:34:16;6.18;;;5.57;;
13580;SDS011;6861;46.170;7.222;2023-06-26T09:36:45;6.75;;;6.00;;
13580;SDS011;6861;46.170;7.222;2023-06-26T09:39:15;7.35;;;6.18;;
13580;SDS011;6861;46.170;7.222;2023-06-26T09:41:45;6.50;;;5.90;;
13580;SDS011;6861;46.170;7.222;2023-06-26T09:44:13;9.48;;;6.80;;
13580;SDS011;6861;46.170;7.222;2023-06-26T09:46:44;8.35;;;6.07;;
13580;SDS011;6861;46.170;7.222;2023-06-26T09:49:13;8.32;;;5.93;;
13580;SDS011;6861;46.170;7.222;2023-06-26T09:51:42;9.13;;;6.20;;
13580;SDS011;6861;46.170;7.222;2023-06-26T09:54:10;7.10;;;6.35;;
13580;SDS011;6861;46.170;7.222;2023-06-26T09:56:38;6.47;;;5.88;;
13580;SDS011;6861;46.170;7.222;2023-06-26T09:59:08;7.05;;;5.47;;
13580;SDS011;6861;46.170;7.222;2023-06-26T10:01:39;7.43;;;6.32;;
13580;SDS011;6861;46.170;7.222;2023-06-26T10:04:08;7.70;;;5.90;;
13580;SDS011;6861;46.170;7.222;2023-06-26T10:06:38;7.00;;;6.18;;
13580;SDS011;6861;46.170;7.222;2023-06-26T10:09:13;6.30;;;5.70;;
13580;SDS011;6861;46.170;7.222;2023-06-26T10:11:46;6.78;;;5.10;;
13580;SDS011;6861;46.170;7.222;2023-06-26T10:14:18;8.85;;;5.70;;
13580;SDS011;6861;46.170;7.222;2023-06-26T10:16:49;5.93;;;5.30;;
13580;SDS011;6861;46.170;7.222;2023-06-26T10:19:18;7.03;;;5.50;;
13580;SDS011;6861;46.170;7.222;2023-06-26T10:21:51;6.88;;;5.35;;
13580;SDS011;6861;46.170;7.222;2023-06-26T10:24:21;6.25;;;4.97;;
13580;SDS011;6861;46.170;7.222;2023-06-26T10:26:52;7.35;;;5.22;;
13580;SDS011;6861;46.170;7.222;2023-06-26T10:29:26;6.55;;;5.18;;
13580;SDS011;6861;46.170;7.222;2023-06-26T10:31:56;5.40;;;4.90;;
13580;SDS011;6861;46.170;7.222;2023-06-26T10:34:30;5.35;;;4.85;;
13580;SDS011;6861;46.170;7.222;2023-06-26T10:36:58;6.00;;;5.10;;
13580;SDS011;6861;46.170;7.222;2023-06-26T10:39:27;6.55;;;5.00;;
13580;SDS011;6861;46.170;7.222;2023-06-26T10:42:13;7.00;;;4.90;;
13580;SDS011;6861;46.170;7.222;2023-06-26T10:44:44;5.85;;;4.90;;
13580;SDS011;6861;46.170;7.222;2023-06-26T10:47:28;5.47;;;4.97;;
13580;SDS011;6861;46.170;7.222;2023-06-26T10:50:09;5.50;;;4.75;;
13580;SDS011;6861;46.170;7.222;2023-06-26T10:53:08;8.00;;;5.03;;
13580;SDS011;6861;46.170;7.222;2023-06-26T10:55:37;5.97;;;4.80;;
13580;SDS011;6861;46.170;7.222;2023-06-26T11:04:00;5.25;;;4.50;;
13580;SDS011;6861;46.170;7.222;2023-06-26T11:06:31;5.53;;;5.03;;
13580;SDS011;6861;46.170;7.222;2023-06-26T11:09:06;5.00;;;4.50;;
13580;SDS011;6861;46.170;7.222;2023-06-26T11:14:32;5.45;;;4.60;;
13580;SDS011;6861;46.170;7.222;2023-06-26T11:17:05;6.15;;;4.75;;
13580;SDS011;6861;46.170;7.222;2023-06-26T11:19:33;9.40;;;5.03;;
13580;SDS011;6861;46.170;7.222;2023-06-26T11:22:03;5.95;;;4.85;;
13580;SDS011;6861;46.170;7.222;2023-06-26T11:24:32;7.78;;;4.88;;
13580;SDS011;6861;46.170;7.222;2023-06-26T11:27:01;7.80;;;4.93;;
13580;SDS011;6861;46.170;7.222;2023-06-26T11:29:32;7.90;;;5.22;;
13580;SDS011;6861;46.170;7.222;2023-06-26T11:32:01;6.00;;;4.85;;
13580;SDS011;6861;46.170;7.222;2023-06-26T11:34:33;5.50;;;5.00;;
13580;SDS011;6861;46.170;7.222;2023-06-26T11:37:04;5.53;;;4.90;;
13580;SDS011;6861;46.170;7.222;2023-06-26T11:39:33;6.13;;;4.75;;
13580;SDS011;6861;46.170;7.222;2023-06-26T11:42:01;5.55;;;4.85;;
13580;SDS011;6861;46.170;7.222;2023-06-26T11:44:30;6.95;;;4.65;;
13580;SDS011;6861;46.170;7.222;2023-06-26T11:46:58;7.05;;;4.88;;
13580;SDS011;6861;46.170;7.222;2023-06-26T11:49:28;7.65;;;4.93;;
13580;SDS011;6861;46.170;7.222;2023-06-26T11:51:56;5.63;;;4.85;;
13580;SDS011;6861;46.170;7.222;2023-06-26T11:54:26;5.90;;;4.93;;
13580;SDS011;6861;46.170;7.222;2023-06-26T11:56:55;5.63;;;5.07;;
13580;SDS011;6861;46.170;7.222;2023-06-26T11:59:32;5.75;;;4.68;;
13580;SDS011;6861;46.170;7.222;2023-06-26T12:02:04;9.13;;;4.90;;
13580;SDS011;6861;46.170;7.222;2023-06-26T12:04:36;5.25;;;4.75;;
13580;SDS011;6861;46.170;7.222;2023-06-26T12:07:06;5.78;;;4.97;;
13580;SDS011;6861;46.170;7.222;2023-06-26T12:09:39;6.70;;;5.13;;
13580;SDS011;6861;46.170;7.222;2023-06-26T12:12:08;8.07;;;4.88;;
13580;SDS011;6861;46.170;7.222;2023-06-26T12:14:37;6.05;;;5.05;;
13580;SDS011;6861;46.170;7.222;2023-06-26T12:17:08;7.85;;;4.95;;
13580;SDS011;6861;46.170;7.222;2023-06-26T12:19:39;5.30;;;4.80;;
13580;SDS011;6861;46.170;7.222;2023-06-26T12:22:10;7.88;;;5.13;;
13580;SDS011;6861;46.170;7.222;2023-06-26T12:24:39;5.60;;;5.00;;
13580;SDS011;6861;46.170;7.222;2023-06-26T12:27:09;6.50;;;4.53;;
13580;SDS011;6861;46.170;7.222;2023-06-26T12:29:39;5.25;;;4.70;;
13580;SDS011;6861;46.170;7.222;2023-06-26T12:32:10;5.25;;;4.75;;
13580;SDS011;6861;46.170;7.222;2023-06-26T12:34:40;5.63;;;4.70;;
13580;SDS011;6861;46.170;7.222;2023-06-26T12:37:09;6.97;;;4.63;;
13580;SDS011;6861;46.170;7.222;2023-06-26T12:39:47;7.55;;;4.63;;
13580;SDS011;6861;46.170;7.222;2023-06-26T12:42:16;7.07;;;5.03;;
13580;SDS011;6861;46.170;7.222;2023-06-26T12:44:46;5.88;;;4.80;;
13580;SDS011;6861;46.170;7.222;2023-06-26T12:47:15;6.95;;;4.70;;
13580;SDS011;6861;46.170;7.222;2023-06-26T12:49:49;5.97;;;4.55;;
13580;SDS011;6861;46.170;7.222;2023-06-26T12:52:18;5.78;;;4.75;;
13580;SDS011;6861;46.170;7.222;2023-06-26T12:54:51;7.20;;;4.80;;
13580;SDS011;6861;46.170;7.222;2023-06-26T12:57:19;7.43;;;4.97;;
13580;SDS011;6861;46.170;7.222;2023-06-26T12:59:47;6.20;;;4.85;;
13580;SDS011;6861;46.170;7.222;2023-06-26T13:02:16;4.60;;;4.20;;
13580;SDS011;6861;46.170;7.222;2023-06-26T13:04:47;11.30;;;4.72;;
13580;SDS011;6861;46.170;7.222;2023-06-26T13:07:15;7.03;;;5.18;;
13580;SDS011;6861;46.170;7.222;2023-06-26T13:09:43;7.03;;;4.95;;
13580;SDS011;6861;46.170;7.222;2023-06-26T13:12:12;8.18;;;5.30;;
13580;SDS011;6861;46.170;7.222;2023-06-26T13:14:40;5.30;;;4.78;;
13580;SDS011;6861;46.170;7.222;2023-06-26T13:17:08;5.90;;;4.57;;
13580;SDS011;6861;46.170;7.222;2023-06-26T13:19:38;5.68;;;4.90;;
13580;SDS011;6861;46.170;7.222;2023-06-26T13:22:08;5.68;;;4.70;;
13580;SDS011;6861;46.170;7.222;2023-06-26T13:24:36;5.20;;;4.70;;
13580;SDS011;6861;46.170;7.222;2023-06-26T13:27:04;6.35;;;4.95;;
13580;SDS011;6861;46.170;7.222;2023-06-26T13:29:33;4.78;;;4.28;;
13580;SDS011;6861;46.170;7.222;2023-06-26T13:32:01;5.72;;;5.13;;
13580;SDS011;6861;46.170;7.222;2023-06-26T13:34:30;7.22;;;4.75;;
13580;SDS011;6861;46.170;7.222;2023-06-26T13:36:58;7.32;;;4.93;;
13580;SDS011;6861;46.170;7.222;2023-06-26T13:39:28;5.45;;;4.80;;
13580;SDS011;6861;46.170;7.222;2023-06-26T13:41:57;7.03;;;5.25;;
13580;SDS011;6861;46.170;7.222;2023-06-26T13:44:25;6.25;;;5.20;;
13580;SDS011;6861;46.170;7.222;2023-06-26T13:47:12;4.90;;;4.50;;
13580;SDS011;6861;46.170;7.222;2023-06-26T13:49:41;5.22;;;4.72;;
13580;SDS011;6861;46.170;7.222;2023-06-26T13:52:09;6.18;;;4.63;;
13580;SDS011;6861;46.170;7.222;2023-06-26T13:54:38;7.30;;;5.22;;
13580;SDS011;6861;46.170;7.222;2023-06-26T13:57:07;5.28;;;4.78;;
13580;SDS011;6861;46.170;7.222;2023-06-26T13:59:36;5.32;;;4.82;;
13580;SDS011;6861;46.170;7.222;2023-06-26T14:02:06;5.93;;;4.57;;
13580;SDS011;6861;46.170;7.222;2023-06-26T14:04:35;5.38;;;4.88;;
13580;SDS011;6861;46.170;7.222;2023-06-26T14:07:04;6.20;;;5.25;;
13580;SDS011;6861;46.170;7.222;2023-06-26T14:09:33;5.70;;;5.10;;
13580;SDS011;6861;46.170;7.222;2023-06-26T14:12:03;7.03;;;5.07;;
13580;SDS011;6861;46.170;7.222;2023-06-26T14:14:32;6.68;;;4.88;;
13580;SDS011;6861;46.170;7.222;2023-06-26T14:17:01;5.35;;;4.85;;
13580;SDS011;6861;46.170;7.222;2023-06-26T14:19:29;5.45;;;4.95;;
13580;SDS011;6861;46.170;7.222;2023-06-26T14:21:57;5.65;;;5.05;;
13580;SDS011;6861;46.170;7.222;2023-06-26T14:24:25;5.63;;;5.13;;
13580;SDS011;6861;46.170;7.222;2023-06-26T14:26:54;5.53;;;4.72;;
13580;SDS011;6861;46.170;7.222;2023-06-26T14:29:23;9.85;;;5.30;;
13580;SDS011;6861;46.170;7.222;2023-06-26T14:31:51;5.93;;;5.10;;
13580;SDS011;6861;46.170;7.222;2023-06-26T14:34:22;6.78;;;5.22;;
13580;SDS011;6861;46.170;7.222;2023-06-26T14:36:50;5.68;;;5.18;;
13580;SDS011;6861;46.170;7.222;2023-06-26T14:39:18;8.95;;;5.40;;
13580;SDS011;6861;46.170;7.222;2023-06-26T14:41:46;5.75;;;5.10;;
13580;SDS011;6861;46.170;7.222;2023-06-26T14:44:15;6.80;;;5.13;;
13580;SDS011;6861;46.170;7.222;2023-06-26T14:46:45;6.93;;;5.30;;
13580;SDS011;6861;46.170;7.222;2023-06-26T14:49:13;6.90;;;5.30;;
13580;SDS011;6861;46.170;7.222;2023-06-26T14:51:42;7.22;;;5.30;;
13580;SDS011;6861;46.170;7.222;2023-06-26T14:54:10;6.05;;;5.50;;
13580;SDS011;6861;46.170;7.222;2023-06-26T14:56:38;7.07;;;5.13;;
13580;SDS011;6861;46.170;7.222;2023-06-26T14:59:06;6.07;;;4.95;;
13580;SDS011;6861;46.170;7.222;2023-06-26T15:01:34;5.80;;;5.28;;
13580;SDS011;6861;46.170;7.222;2023-06-26T15:04:04;8.73;;;5.20;;
13580;SDS011;6861;46.170;7.222;2023-06-26T15:06:33;6.38;;;5.25;;
13580;SDS011;6861;46.170;7.222;2023-06-26T15:09:01;6.18;;;5.57;;
13580;SDS011;6861;46.170;7.222;2023-06-26T15:11:29;6.15;;;5.53;;
13580;SDS011;6861;46.170;7.222;2023-06-26T15:13:58;7.80;;;5.38;;
13580;SDS011;6861;46.170;7.222;2023-06-26T15:16:26;5.72;;;5.13;;
13580;SDS011;6861;46.170;7.222;2023-06-26T15:18:54;6.78;;;5.22;;
13580;SDS011;6861;46.170;7.222;2023-06-26T15:21:23;7.45;;;5.78;;
13580;SDS011;6861;46.170;7.222;2023-06-26T15:23:52;7.20;;;5.80;;